Time;durP1;ratioP1;P1;durP2;ratioP2;P2;SDS_P1;SDS_P2;PMS_P1;PMS_P2;Temp;Humidity;BMP_temperature;BMP_pressure;BME280_temperature;BME280_humidity;BME280_pressure;Samples;Min_cycle;Max_cycle;Signal;HPM_P1;HPM_P2
2022/07/29 00:01:01;;;;;;;0.00;0.00;;;18.00;98.50;17.00;96400.00;;;;5034006;28;20446;-73
2022/07/29 00:03:29;;;;;;;0.00;0.00;;;18.10;98.50;17.00;96502.00;;;;5020333;28;20235;-73
2022/07/29 00:05:57;;;;;;;0.00;0.00;;;18.10;98.30;17.00;96476.00;;;;5018145;28;20195;-72
2022/07/29 00:08:27;;;;;;;0.00;0.00;;;18.10;98.20;17.00;96480.00;;;;5024113;28;20284;-74
2022/07/29 00:10:56;;;;;;;0.00;0.00;;;18.10;98.20;17.10;96528.00;;;;5013867;28;20830;-74
2022/07/29 00:13:25;;;;;;;0.00;0.00;;;18.10;98.10;17.10;96457.00;;;;5013758;28;20231;-74
2022/07/29 00:15:59;;;;;;;0.00;0.00;;;18.20;98.00;17.10;96458.00;;;;5014171;28;20191;-74
2022/07/29 00:18:32;;;;;;;0.00;0.00;;;18.20;98.00;17.00;96239.00;;;;5025975;28;20749;-74
2022/07/29 00:21:01;;;;;;;0.00;0.00;;;18.20;98.00;17.00;96148.00;;;;5025829;28;20227;-73
2022/07/29 00:23:29;;;;;;;0.00;0.00;;;18.30;98.30;17.00;96141.00;;;;5013850;28;20559;-73
2022/07/29 00:26:03;;;;;;;0.00;0.00;;;18.30;98.20;16.90;96139.00;;;;5022119;28;20209;-72
2022/07/29 00:28:31;;;;;;;0.00;0.00;;;18.20;98.50;16.80;96150.00;;;;5033016;28;20705;-72
2022/07/29 00:30:59;;;;;;;0.00;0.00;;;17.90;98.60;16.70;96120.00;;;;5025902;28;20548;-72
2022/07/29 00:33:27;;;;;;;0.00;0.00;;;17.90;99.10;16.60;96125.00;;;;5017745;28;20718;-72
2022/07/29 00:35:54;;;;;;;0.00;0.00;;;17.80;99.40;16.60;96178.00;;;;5021345;28;20192;-72
2022/07/29 00:38:24;;;;;;;0.00;0.00;;;17.80;99.70;16.60;96207.00;;;;5013508;28;20226;-72
2022/07/29 00:40:52;;;;;;;0.00;0.00;;;17.80;99.80;16.60;96131.00;;;;5017652;28;20191;-73
2022/07/29 00:43:21;;;;;;;0.00;0.00;;;17.80;99.90;16.60;96110.00;;;;5034252;28;20225;-73
2022/07/29 00:45:49;;;;;;;0.00;0.00;;;17.80;99.90;16.60;96110.00;;;;5027490;28;20188;-72
2022/07/29 00:48:18;;;;;;;0.00;0.00;;;17.80;99.90;16.60;96118.00;;;;5018557;28;20194;-73
2022/07/29 00:50:46;;;;;;;0.00;0.00;;;17.80;99.90;16.50;96231.00;;;;5016963;28;20203;-73
2022/07/29 00:53:14;;;;;;;0.00;0.00;;;17.60;99.90;16.50;96173.00;;;;5015764;28;20224;-72
2022/07/29 00:55:42;;;;;;;0.00;0.00;;;17.60;99.90;16.30;96085.00;;;;5021235;28;20203;-72
2022/07/29 00:58:12;;;;;;;0.00;0.00;;;17.50;99.90;16.20;96075.00;;;;5014277;28;20192;-72
2022/07/29 01:00:43;;;;;;;0.00;0.00;;;17.30;99.90;16.10;96111.00;;;;5031231;28;20217;-72
2022/07/29 01:03:12;;;;;;;0.00;0.00;;;17.30;99.90;16.10;96136.00;;;;5030918;28;20224;-72
2022/07/29 01:05:43;;;;;;;0.00;0.00;;;17.20;99.90;16.10;96160.00;;;;5019000;28;20206;-72
2022/07/29 01:08:20;;;;;;;0.00;0.00;;;17.30;99.90;16.10;96159.00;;;;5024038;28;20303;-72
2022/07/29 01:10:50;;;;;;;0.00;0.00;;;17.30;99.90;16.20;96305.00;;;;5016414;28;20238;-72
2022/07/29 01:13:18;;;;;;;0.00;0.00;;;17.40;99.90;16.20;96203.00;;;;5031833;28;20577;-72
2022/07/29 01:15:57;;;;;;;0.00;0.00;;;17.40;99.90;16.20;96178.00;;;;5029248;28;20191;-72
2022/07/29 01:18:32;;;;;;;0.00;0.00;;;17.40;99.90;16.20;96199.00;;;;5024676;28;20621;-73
2022/07/29 01:21:39;;;;;;;0.00;0.00;;;17.30;99.90;16.20;96212.00;;;;5032609;28;20213;-73
2022/07/29 01:24:30;;;;;;;0.00;0.00;;;17.40;99.90;16.20;96245.00;;;;5034228;28;20599;-73
2022/07/29 01:27:10;;;;;;;0.00;0.00;;;17.30;99.90;16.10;96256.00;;;;5014438;28;20192;-73
2022/07/29 01:29:54;;;;;;;0.00;0.00;;;17.30;99.90;16.10;96280.00;;;;5011589;28;20715;-73
2022/07/29 01:32:29;;;;;;;0.00;0.00;;;17.30;99.90;16.00;95923.00;;;;5012183;28;20250;-73
2022/07/29 01:35:05;;;;;;;0.00;0.00;;;17.30;99.90;15.90;95907.00;;;;5028932;28;20211;-73
2022/07/29 01:37:45;;;;;;;0.00;0.00;;;17.10;99.90;15.90;95941.00;;;;5023215;28;20658;-77
2022/07/29 01:40:21;;;;;;;0.00;0.00;;;17.10;99.90;15.90;95964.00;;;;5032283;28;20202;-74
2022/07/29 01:42:55;;;;;;;0.00;0.00;;;17.10;99.90;15.80;95942.00;;;;5017297;28;20223;-74
2022/07/29 01:45:33;;;;;;;0.00;0.00;;;17.10;99.90;15.80;96055.00;;;;5012504;28;20196;-73
2022/07/29 01:48:11;;;;;;;0.00;0.00;;;17.00;99.90;15.80;95938.00;;;;5012252;28;20188;-73
2022/07/29 01:50:48;;;;;;;0.00;0.00;;;17.00;99.90;15.70;95932.00;;;;5030659;28;20226;-71
2022/07/29 01:53:26;;;;;;;0.10;0.10;;;17.00;99.90;15.80;95948.00;;;;5021752;28;20616;-72
2022/07/29 01:56:00;;;;;;;0.00;0.00;;;17.00;99.90;15.70;95885.00;;;;5023038;28;20290;-73
2022/07/29 01:58:32;;;;;;;0.00;0.00;;;16.90;99.90;15.70;95915.00;;;;5033303;28;20192;-72
2022/07/29 02:01:03;;;;;;;0.00;0.00;;;16.90;99.90;15.70;95934.00;;;;5054053;28;20194;-72
2022/07/29 02:03:33;;;;;;;0.00;0.00;;;17.00;99.90;15.80;95924.00;;;;5036883;28;20682;-71
2022/07/29 02:06:05;;;;;;;0.00;0.00;;;17.00;99.90;15.80;96013.00;;;;5016855;28;20200;-72
2022/07/29 02:08:35;;;;;;;0.00;0.00;;;17.00;99.90;15.80;95802.00;;;;5023727;28;20207;-72
2022/07/29 02:11:05;;;;;;;0.10;0.10;;;17.00;99.90;15.90;95799.00;;;;5032321;28;20226;-72
2022/07/29 02:13:37;;;;;;;0.00;0.00;;;17.10;99.90;15.90;95900.00;;;;5030440;28;20223;-70
2022/07/29 02:16:10;;;;;;;0.00;0.00;;;17.10;99.90;16.10;96317.00;;;;5022813;28;20203;-71
2022/07/29 02:18:43;;;;;;;0.00;0.00;;;17.10;99.90;16.00;96074.00;;;;5013836;28;20215;-72
2022/07/29 02:21:13;;;;;;;0.00;0.00;;;17.20;99.90;16.00;95992.00;;;;5013771;28;20200;-72
2022/07/29 02:23:46;;;;;;;0.00;0.00;;;17.10;99.90;15.90;95986.00;;;;5015640;28;20298;-72
2022/07/29 02:26:21;;;;;;;0.00;0.00;;;17.10;99.90;15.80;95992.00;;;;5016362;28;20195;-71
2022/07/29 02:28:52;;;;;;;0.03;0.03;;;17.10;99.90;15.90;96053.00;;;;5032569;28;20213;-72
2022/07/29 02:31:27;;;;;;;0.00;0.00;;;17.10;99.90;15.90;96120.00;;;;5033153;28;20223;-71
2022/07/29 02:33:56;;;;;;;0.10;0.10;;;17.00;99.90;15.80;95970.00;;;;5032769;28;20226;-72
2022/07/29 02:36:26;;;;;;;0.00;0.00;;;17.00;99.90;15.80;96004.00;;;;5020528;28;20207;-72
2022/07/29 02:38:57;;;;;;;0.00;0.00;;;17.00;99.90;15.80;96044.00;;;;5032652;28;20198;-73
2022/07/29 02:41:31;;;;;;;0.00;0.00;;;16.90;99.90;15.80;96018.00;;;;5020562;28;20254;-73
2022/07/29 02:44:11;;;;;;;0.00;0.00;;;16.90;99.90;15.80;96032.00;;;;5012749;28;20220;-73
2022/07/29 02:46:48;;;;;;;0.00;0.00;;;17.00;99.90;15.80;96099.00;;;;5017093;28;20199;-69
2022/07/29 02:49:31;;;;;;;0.00;0.00;;;17.00;99.90;15.80;96092.00;;;;5031537;28;20643;-72
2022/07/29 02:52:04;;;;;;;0.10;0.10;;;17.10;99.90;15.80;96102.00;;;;5027328;28;20211;-69
2022/07/29 02:54:39;;;;;;;0.00;0.00;;;17.10;99.90;15.70;95942.00;;;;5024752;28;20202;-69
2022/07/29 02:57:19;;;;;;;0.00;0.00;;;17.00;99.90;15.50;95247.00;;;;5025098;28;20206;-70
2022/07/29 02:59:52;;;;;;;0.00;0.00;;;16.80;99.90;15.50;95346.00;;;;5035302;28;20195;-69
2022/07/29 03:02:22;;;;;;;0.00;0.00;;;16.70;99.90;15.40;95528.00;;;;5034969;28;20231;-69
2022/07/29 03:04:53;;;;;;;0.00;0.00;;;16.60;99.90;15.40;95600.00;;;;5023546;28;20187;-69
2022/07/29 03:07:23;;;;;;;0.00;0.00;;;16.70;99.90;15.30;95618.00;;;;5029935;28;20560;-70
2022/07/29 03:09:52;;;;;;;0.00;0.00;;;16.50;99.90;15.30;95648.00;;;;5035035;28;20190;-69
2022/07/29 03:12:21;;;;;;;0.00;0.00;;;16.50;99.90;15.30;95836.00;;;;5034896;28;20218;-69
2022/07/29 03:14:49;;;;;;;0.00;0.00;;;16.50;99.90;15.30;95666.00;;;;5018761;28;20191;-69
2022/07/29 03:17:18;;;;;;;0.10;0.10;;;16.50;99.90;15.20;95709.00;;;;5021017;28;20203;-70
2022/07/29 03:19:48;;;;;;;0.00;0.00;;;16.50;99.90;15.30;95719.00;;;;5020937;28;20195;-70
2022/07/29 03:22:16;;;;;;;0.03;0.03;;;16.50;99.90;15.20;95729.00;;;;5018465;28;20269;-70
2022/07/29 03:24:46;;;;;;;0.00;0.00;;;16.50;99.90;15.10;95678.00;;;;5031359;28;20650;-69
2022/07/29 03:27:14;;;;;;;0.00;0.00;;;16.30;99.90;15.10;95771.00;;;;5026032;28;20195;-69
2022/07/29 03:29:43;;;;;;;0.10;0.10;;;16.40;99.90;15.10;95857.00;;;;5034354;28;20218;-69
2022/07/29 03:32:17;;;;;;;0.00;0.00;;;16.30;99.90;15.00;95673.00;;;;5034463;28;20261;-69
2022/07/29 03:34:53;;;;;;;0.00;0.00;;;16.30;99.90;15.00;95843.00;;;;5030794;28;20198;-69
2022/07/29 03:37:21;;;;;;;0.00;0.00;;;16.20;99.90;14.90;95751.00;;;;5028014;28;20191;-69
2022/07/29 03:39:51;;;;;;;0.10;0.10;;;16.10;99.90;14.90;95568.00;;;;5029137;28;20183;-69
2022/07/29 03:42:25;;;;;;;0.00;0.00;;;16.10;99.90;14.90;95636.00;;;;5017319;28;20227;-69
2022/07/29 03:45:04;;;;;;;0.00;0.00;;;16.20;99.90;14.90;95587.00;;;;5019853;28;20245;-70
2022/07/29 03:47:35;;;;;;;0.00;0.00;;;16.20;99.90;15.00;95545.00;;;;5016342;28;20210;-68
2022/07/29 03:50:21;;;;;;;0.00;0.00;;;16.30;99.90;15.00;95566.00;;;;5015197;28;20215;-69
2022/07/29 03:52:50;;;;;;;0.00;0.00;;;16.20;99.90;15.00;95426.00;;;;5014284;28;20211;-68
2022/07/29 03:55:18;;;;;;;0.00;0.00;;;16.30;99.90;15.10;95633.00;;;;5020607;28;20191;-68
2022/07/29 03:57:50;;;;;;;0.00;0.00;;;16.40;99.90;15.20;96053.00;;;;5019216;28;20196;-67
2022/07/29 04:00:19;;;;;;;0.00;0.00;;;16.40;99.90;15.30;96066.00;;;;5016224;28;20196;-70
2022/07/29 04:02:48;;;;;;;0.00;0.00;;;16.40;99.90;15.20;95860.00;;;;5016438;28;20219;-73
2022/07/29 04:05:19;;;;;;;0.00;0.00;;;16.40;99.90;15.10;95918.00;;;;5013711;28;20199;-70
2022/07/29 04:07:48;;;;;;;0.00;0.00;;;16.40;99.90;15.10;95883.00;;;;5024375;28;20563;-74
2022/07/29 04:10:19;;;;;;;0.03;0.03;;;16.30;99.90;15.10;95441.00;;;;5040299;28;20202;-71
2022/07/29 04:12:58;;;;;;;0.00;0.00;;;16.40;99.90;15.30;95992.00;;;;5036292;28;20210;-71
2022/07/29 04:15:28;;;;;;;0.00;0.00;;;16.50;99.90;15.30;95980.00;;;;5043846;28;20652;-71
2022/07/29 04:17:59;;;;;;;0.00;0.00;;;16.50;99.90;15.30;96017.00;;;;5040548;28;20218;-71
2022/07/29 04:20:28;;;;;;;0.08;0.08;;;16.40;99.90;15.30;96002.00;;;;5032401;28;20199;-71
2022/07/29 04:22:56;;;;;;;0.00;0.00;;;16.50;99.90;15.20;95970.00;;;;5032232;28;20706;-70
2022/07/29 04:25:24;;;;;;;0.00;0.00;;;16.50;99.90;15.10;95438.00;;;;5032585;28;20206;-71
2022/07/29 04:28:01;;;;;;;0.00;0.00;;;16.40;99.90;15.00;95518.00;;;;5040757;28;20187;-69
2022/07/29 04:30:31;;;;;;;0.00;0.00;;;16.30;99.90;15.00;96013.00;;;;5031854;28;20195;-68
2022/07/29 04:33:00;;;;;;;0.00;0.00;;;16.20;99.90;15.00;96054.00;;;;5019538;28;20729;-69
2022/07/29 04:35:30;;;;;;;0.00;0.00;;;16.20;99.90;14.90;96048.00;;;;5021831;28;20187;-69
2022/07/29 04:38:07;;;;;;;0.00;0.00;;;16.10;99.90;14.90;95929.00;;;;5017633;28;20286;-69
2022/07/29 04:40:42;;;;;;;0.10;0.10;;;16.10;99.90;15.00;95872.00;;;;5022305;28;20198;-69
2022/07/29 04:43:10;;;;;;;0.08;0.08;;;16.20;99.90;15.00;95798.00;;;;5021231;28;20234;-69
2022/07/29 04:45:41;;;;;;;0.00;0.00;;;16.30;99.90;15.00;95732.00;;;;5021108;28;20269;-69
2022/07/29 04:48:09;;;;;;;0.00;0.00;;;16.30;99.90;15.10;95733.00;;;;5022515;28;20200;-69
2022/07/29 04:50:41;;;;;;;0.00;0.00;;;16.40;99.90;15.20;95738.00;;;;5022931;28;20298;-69
2022/07/29 04:53:09;;;;;;;0.00;0.00;;;16.40;99.90;15.10;95717.00;;;;5013755;28;20311;-69
2022/07/29 04:55:38;;;;;;;0.05;0.05;;;16.40;99.90;15.00;95685.00;;;;5021019;28;20593;-68
2022/07/29 04:58:07;;;;;;;0.10;0.10;;;16.30;99.90;15.10;95698.00;;;;5029745;28;20199;-69
2022/07/29 05:00:35;;;;;;;0.00;0.00;;;16.30;99.90;15.20;95710.00;;;;5024301;28;20199;-70
2022/07/29 05:03:03;;;;;;;0.00;0.00;;;16.40;99.90;15.30;95707.00;;;;5032906;28;20269;-69
2022/07/29 05:05:32;;;;;;;0.00;0.00;;;16.50;99.90;15.40;95714.00;;;;5028450;28;20230;-69
2022/07/29 05:08:02;;;;;;;0.00;0.00;;;16.60;99.90;15.40;95718.00;;;;5019283;28;20191;-69
2022/07/29 05:10:30;;;;;;;0.00;0.00;;;16.70;99.90;15.50;95728.00;;;;5031519;28;20190;-69
2022/07/29 05:12:58;;;;;;;0.03;0.03;;;16.70;99.90;15.50;95738.00;;;;5025967;28;20230;-69
2022/07/29 05:15:26;;;;;;;0.00;0.00;;;16.80;99.90;15.50;95730.00;;;;5024924;28;20199;-69
2022/07/29 05:17:54;;;;;;;0.00;0.00;;;16.80;99.90;15.60;95724.00;;;;5012392;28;20199;-70
2022/07/29 05:20:26;;;;;;;0.10;0.10;;;16.80;99.90;15.60;95727.00;;;;5021471;28;20202;-70
2022/07/29 05:22:54;;;;;;;0.05;0.05;;;16.80;99.90;15.70;95737.00;;;;5028876;28;20768;-69
2022/07/29 05:25:23;;;;;;;0.00;0.00;;;16.90;99.90;15.90;95775.00;;;;5026328;28;20202;-68
2022/07/29 05:28:11;;;;;;;0.00;0.00;;;17.10;99.90;16.00;95826.00;;;;5014489;28;20278;-70
2022/07/29 05:30:39;;;;;;;0.00;0.00;;;17.10;99.90;16.00;95922.00;;;;5022956;28;20214;-68
2022/07/29 05:33:07;;;;;;;0.00;0.00;;;17.10;99.90;16.00;95835.00;;;;5029405;28;20293;-69
2022/07/29 05:35:55;;;;;;;0.00;0.00;;;17.20;99.90;16.10;95860.00;;;;5017254;28;20306;-69
2022/07/29 05:38:27;;;;;;;0.00;0.00;;;17.30;99.90;16.10;95871.00;;;;5013156;28;20203;-69
2022/07/29 05:40:59;;;;;;;0.00;0.00;;;17.30;99.90;16.00;95872.00;;;;5018599;28;20195;-69
2022/07/29 05:43:27;;;;;;;0.00;0.00;;;17.30;99.90;16.10;95880.00;;;;5022001;28;20738;-70
2022/07/29 05:45:56;;;;;;;0.00;0.00;;;17.30;99.90;16.10;95899.00;;;;5042086;28;20257;-69
2022/07/29 05:48:25;;;;;;;0.00;0.00;;;17.40;99.90;16.10;95894.00;;;;5039545;28;20248;-69
2022/07/29 05:50:53;;;;;;;0.00;0.00;;;17.40;99.90;16.20;96003.00;;;;5040917;28;20199;-69
2022/07/29 05:53:21;;;;;;;0.00;0.00;;;17.40;99.90;16.30;96192.00;;;;5041264;28;20222;-70
2022/07/29 05:55:49;;;;;;;0.00;0.00;;;17.50;99.90;16.30;96243.00;;;;5036955;28;20199;-69
2022/07/29 05:58:19;;;;;;;0.00;0.00;;;17.50;99.90;16.30;96000.00;;;;5036912;28;20191;-69
2022/07/29 06:00:47;;;;;;;0.00;0.00;;;17.50;99.90;16.30;96203.00;;;;5040468;28;20230;-70
2022/07/29 06:03:15;;;;;;;0.00;0.00;;;17.60;99.90;16.60;96346.00;;;;5038463;28;20218;-70
2022/07/29 06:05:43;;;;;;;0.00;0.00;;;17.70;99.90;16.70;96310.00;;;;5040246;28;21189;-69
2022/07/29 06:08:12;;;;;;;0.00;0.00;;;17.80;99.90;16.90;96357.00;;;;5035198;28;20198;-69
2022/07/29 06:10:40;;;;;;;0.00;0.00;;;18.00;99.90;17.00;96331.00;;;;5041606;28;20323;-69
2022/07/29 06:13:08;;;;;;;0.00;0.00;;;18.00;99.90;17.00;96334.00;;;;5039884;28;20219;-69
2022/07/29 06:15:37;;;;;;;0.00;0.00;;;18.00;99.90;17.00;96301.00;;;;5041421;28;20201;-70
2022/07/29 06:18:08;;;;;;;0.00;0.00;;;18.10;99.90;17.10;96373.00;;;;5028037;28;20227;-71
2022/07/29 06:20:37;;;;;;;0.00;0.00;;;18.10;99.90;17.20;96291.00;;;;5011607;28;20204;-70
2022/07/29 06:23:05;;;;;;;0.00;0.00;;;18.20;99.90;17.10;96280.00;;;;5031779;28;20221;-70
2022/07/29 06:25:35;;;;;;;0.00;0.00;;;18.10;99.90;17.00;96266.00;;;;5041972;28;20194;-70
2022/07/29 06:28:03;;;;;;;0.00;0.00;;;18.10;99.90;17.00;96254.00;;;;5034432;28;20222;-69
2022/07/29 06:30:32;;;;;;;0.10;0.10;;;18.10;99.90;17.00;96284.00;;;;5027707;28;20203;-70
2022/07/29 06:33:01;;;;;;;0.00;0.00;;;18.10;99.90;17.10;96331.00;;;;5027895;28;20227;-70
2022/07/29 06:35:29;;;;;;;0.00;0.00;;;18.20;99.90;17.10;96246.00;;;;5021802;28;20199;-70
2022/07/29 06:38:09;;;;;;;0.00;0.00;;;18.20;99.90;17.10;96260.00;;;;5015381;28;20207;-69
2022/07/29 06:41:01;;;;;;;0.00;0.00;;;18.20;99.90;17.10;96252.00;;;;5011909;28;20203;-70
2022/07/29 06:43:33;;;;;;;0.00;0.00;;;18.20;99.90;16.90;96268.00;;;;5026818;28;20586;-69
2022/07/29 06:46:04;;;;;;;0.00;0.00;;;18.20;99.90;17.20;96299.00;;;;5030878;28;20245;-69
2022/07/29 06:48:35;;;;;;;0.00;0.00;;;18.30;99.90;17.20;96276.00;;;;5027262;28;20195;-69
2022/07/29 06:51:05;;;;;;;0.00;0.00;;;18.40;99.90;17.30;96319.00;;;;5033968;28;20250;-70
2022/07/29 06:53:34;;;;;;;0.00;0.00;;;18.40;99.90;17.30;96317.00;;;;5026137;28;20242;-69
2022/07/29 06:56:04;;;;;;;0.00;0.00;;;18.40;99.90;17.40;96292.00;;;;5026961;28;20204;-69
2022/07/29 06:58:32;;;;;;;0.10;0.10;;;18.50;99.90;17.40;96286.00;;;;5027614;28;20210;-70
2022/07/29 07:01:04;;;;;;;0.00;0.00;;;18.40;99.90;17.40;96269.00;;;;5030086;28;20249;-69
2022/07/29 07:03:34;;;;;;;0.00;0.00;;;18.50;99.90;17.50;96253.00;;;;5032568;28;20219;-71
2022/07/29 07:06:03;;;;;;;0.00;0.00;;;18.60;99.90;17.60;96291.00;;;;5019149;28;20271;-70
2022/07/29 07:08:31;;;;;;;0.00;0.00;;;18.60;99.90;17.60;96292.00;;;;5030700;28;20274;-71
2022/07/29 07:10:59;;;;;;;0.00;0.00;;;18.70;99.90;17.80;96321.00;;;;5015724;28;20223;-71
2022/07/29 07:13:27;;;;;;;0.00;0.00;;;18.80;99.90;17.70;96179.00;;;;5029590;28;20231;-71
2022/07/29 07:15:55;;;;;;;0.00;0.00;;;18.90;99.90;18.00;96284.00;;;;5014394;28;20551;-70
2022/07/29 07:18:23;;;;;;;0.00;0.00;;;19.00;99.90;18.00;96278.00;;;;5013171;28;20196;-69
2022/07/29 07:20:53;;;;;;;0.00;0.00;;;19.10;99.90;18.20;96265.00;;;;5030559;28;20199;-69
2022/07/29 07:23:21;;;;;;;0.00;0.00;;;19.30;99.90;18.50;96287.00;;;;5021200;28;20219;-70
2022/07/29 07:25:49;;;;;;;0.00;0.00;;;19.40;99.90;18.60;96284.00;;;;5023147;28;20222;-70
2022/07/29 07:28:17;;;;;;;0.00;0.00;;;19.50;99.90;18.80;96319.00;;;;5026188;28;20651;-69
2022/07/29 07:30:51;;;;;;;0.00;0.00;;;19.70;99.90;19.00;96313.00;;;;5030705;28;20281;-69
2022/07/29 07:33:19;;;;;;;0.00;0.00;;;19.90;99.90;19.20;96323.00;;;;5030638;28;20625;-70
2022/07/29 07:35:47;;;;;;;0.00;0.00;;;20.10;99.90;19.10;96326.00;;;;5034987;28;20190;-71
2022/07/29 07:38:17;;;;;;;0.00;0.00;;;20.10;99.90;19.50;96351.00;;;;5030381;28;20628;-69
2022/07/29 07:40:46;;;;;;;0.00;0.00;;;20.40;99.90;19.70;96381.00;;;;5023894;28;20196;-69
2022/07/29 07:43:14;;;;;;;0.00;0.00;;;20.50;99.90;19.90;96399.00;;;;5014699;28;20302;-70
2022/07/29 07:45:42;;;;;;;0.00;0.00;;;20.70;99.90;20.20;96398.00;;;;5025501;28;20669;-69
2022/07/29 07:48:10;;;;;;;0.00;0.00;;;21.00;99.90;20.50;96410.00;;;;5026993;28;20195;-70
2022/07/29 07:50:38;;;;;;;0.00;0.00;;;21.20;99.90;20.70;96393.00;;;;5024115;28;20199;-70
2022/07/29 07:53:06;;;;;;;0.00;0.00;;;21.50;99.90;20.80;96394.00;;;;5023222;28;20220;-70
2022/07/29 07:55:41;;;;;;;0.00;0.00;;;21.60;99.90;21.00;96412.00;;;;5026728;28;20659;-70
2022/07/29 07:58:29;;;;;;;0.00;0.00;;;21.80;99.90;21.40;96387.00;;;;5029679;28;20214;-69
2022/07/29 08:00:57;;;;;;;0.00;0.00;;;22.20;99.80;21.70;96396.00;;;;5038888;28;20752;-71
2022/07/29 08:03:25;;;;;;;0.00;0.00;;;22.50;99.40;21.80;96411.00;;;;5034436;28;20288;-72
2022/07/29 08:05:54;;;;;;;0.00;0.00;;;22.60;99.20;22.10;96503.00;;;;5019047;28;20562;-71
2022/07/29 08:08:22;;;;;;;0.00;0.00;;;22.80;98.90;22.20;96579.00;;;;5018651;28;20199;-71
2022/07/29 08:10:55;;;;;;;0.00;0.00;;;22.80;98.30;22.30;96548.00;;;;5027042;28;20203;-71
2022/07/29 08:13:28;;;;;;;0.00;0.00;;;23.00;98.60;22.30;96547.00;;;;5031861;28;20254;-72
2022/07/29 08:16:01;;;;;;;0.00;0.00;;;23.10;98.70;22.20;96398.00;;;;5014219;28;20567;-71
2022/07/29 08:18:31;;;;;;;0.00;0.00;;;23.00;98.00;22.20;96410.00;;;;5015330;28;20183;-72
2022/07/29 08:21:00;;;;;;;0.00;0.00;;;23.10;98.00;22.30;96401.00;;;;5020214;28;20196;-72
2022/07/29 08:23:34;;;;;;;0.00;0.00;;;23.10;98.00;22.40;96385.00;;;;5019059;28;20294;-71
2022/07/29 08:26:17;;;;;;;0.00;0.00;;;23.30;97.90;22.50;96373.00;;;;5026559;28;20195;-71
2022/07/29 08:28:50;;;;;;;0.00;0.00;;;23.40;97.40;22.90;96416.00;;;;5012667;28;20207;-69
2022/07/29 08:31:20;;;;;;;0.00;0.00;;;23.70;97.80;23.20;96417.00;;;;5030205;28;20187;-70
2022/07/29 08:33:49;;;;;;;0.00;0.00;;;23.90;97.60;23.60;96462.00;;;;5029457;28;20720;-69
2022/07/29 08:36:17;;;;;;;0.00;0.00;;;24.20;97.00;24.00;96446.00;;;;5032192;28;20210;-68
2022/07/29 08:38:45;;;;;;;0.00;0.00;;;24.60;96.30;24.30;96504.00;;;;5023153;28;20200;-68
2022/07/29 08:41:14;;;;;;;0.00;0.00;;;24.80;95.90;24.40;96406.00;;;;5021760;28;20230;-68
2022/07/29 08:43:43;;;;;;;0.00;0.00;;;25.10;95.40;24.50;96424.00;;;;5017899;28;20298;-69
2022/07/29 08:46:11;;;;;;;0.00;0.00;;;25.20;95.30;24.60;96471.00;;;;5022850;28;20203;-69
2022/07/29 08:48:42;;;;;;;0.00;0.00;;;25.30;95.20;24.70;96443.00;;;;5013452;28;20196;-69
2022/07/29 08:51:17;;;;;;;0.00;0.00;;;25.50;95.10;24.80;96389.00;;;;5022026;28;20261;-69
2022/07/29 08:53:49;;;;;;;0.00;0.00;;;25.60;94.70;25.10;96404.00;;;;5023147;28;20286;-69
2022/07/29 08:56:19;;;;;;;0.00;0.00;;;25.80;94.90;25.40;96418.00;;;;5031544;28;20195;-69
2022/07/29 08:58:50;;;;;;;0.00;0.00;;;26.00;94.50;25.70;96432.00;;;;5028005;28;20302;-69
2022/07/29 09:01:25;;;;;;;0.00;0.00;;;26.30;94.50;25.90;96378.00;;;;5041570;28;20269;-69
2022/07/29 09:04:12;;;;;;;0.00;0.00;;;26.50;93.80;26.20;96434.00;;;;5040693;28;20564;-72
2022/07/29 09:06:46;;;;;;;0.00;0.00;;;26.80;93.80;26.50;96513.00;;;;5031205;28;20369;-73
2022/07/29 09:09:16;;;;;;;0.00;0.00;;;27.00;93.50;26.50;96452.00;;;;5027002;28;20207;-72
2022/07/29 09:11:45;;;;;;;0.00;0.00;;;27.20;93.20;26.70;96477.00;;;;5025488;28;20200;-72
2022/07/29 09:14:15;;;;;;;0.00;0.00;;;27.40;93.30;26.70;96450.00;;;;5027259;28;20226;-71
2022/07/29 09:16:52;;;;;;;0.00;0.00;;;27.50;92.90;26.80;96429.00;;;;5028869;28;20203;-73
2022/07/29 09:19:27;;;;;;;0.00;0.00;;;27.50;92.80;26.70;96440.00;;;;5037382;28;20226;-73
2022/07/29 09:22:00;;;;;;;0.00;0.00;;;27.50;92.40;26.90;96436.00;;;;5033300;28;20202;-72
2022/07/29 09:24:42;;;;;;;0.00;0.00;;;27.60;92.70;27.00;96433.00;;;;5034895;28;20225;-72
2022/07/29 09:27:22;;;;;;;0.00;0.00;;;27.70;92.70;27.10;96417.00;;;;5030346;28;20238;-72
2022/07/29 09:29:59;;;;;;;0.00;0.00;;;27.80;92.00;27.00;96414.00;;;;5033182;28;20223;-71
2022/07/29 09:32:29;;;;;;;0.00;0.00;;;27.70;92.40;26.90;96409.00;;;;5032296;28;20223;-71
2022/07/29 09:35:18;;;;;;;0.00;0.00;;;27.70;92.40;27.00;96386.00;;;;5033071;28;20222;-72
2022/07/29 09:37:47;;;;;;;0.00;0.00;;;27.80;92.10;26.70;96367.00;;;;5015342;28;20227;-72
2022/07/29 09:40:18;;;;;;;0.00;0.00;;;27.60;92.10;26.90;96373.00;;;;5027640;28;20567;-70
2022/07/29 09:42:47;;;;;;;0.00;0.00;;;27.70;92.40;27.30;96393.00;;;;5016822;28;20212;-70
2022/07/29 09:45:30;;;;;;;0.00;0.00;;;27.90;92.10;27.10;96331.00;;;;5028657;28;20599;-72
2022/07/29 09:48:02;;;;;;;0.00;0.00;;;27.80;91.70;27.20;96424.00;;;;5029441;28;20195;-72
2022/07/29 09:50:39;;;;;;;0.00;0.00;;;27.90;92.00;27.20;96434.00;;;;5032420;28;20222;-70
2022/07/29 09:53:09;;;;;;;0.00;0.00;;;27.90;92.00;27.10;96385.00;;;;5030022;28;20214;-70
2022/07/29 09:55:49;;;;;;;0.00;0.00;;;27.90;91.70;27.10;96357.00;;;;5037224;28;20234;-70
2022/07/29 09:58:21;;;;;;;0.00;0.00;;;27.80;91.70;27.30;96393.00;;;;5039776;28;20274;-70
2022/07/29 10:00:53;;;;;;;0.00;0.00;;;28.00;91.50;27.20;96365.00;;;;5032870;28;20191;-69
2022/07/29 10:03:22;;;;;;;0.00;0.00;;;27.90;91.40;27.10;96382.00;;;;5029858;28;20219;-71
2022/07/29 10:06:07;;;;;;;0.00;0.00;;;27.90;91.70;27.30;96371.00;;;;5012622;28;20192;-70
2022/07/29 10:08:35;;;;;;;0.00;0.00;;;27.90;91.70;27.30;96367.00;;;;5015214;28;20196;-70
2022/07/29 10:11:13;;;;;;;0.00;0.00;;;28.00;91.70;27.60;96392.00;;;;5027023;28;20649;-70
2022/07/29 10:13:43;;;;;;;0.00;0.00;;;28.20;91.90;27.90;96403.00;;;;5024857;28;20262;-71
2022/07/29 10:16:14;;;;;;;0.00;0.00;;;28.50;91.70;28.20;96405.00;;;;5024503;28;20209;-70
2022/07/29 10:18:44;;;;;;;0.00;0.00;;;28.80;91.10;28.40;96363.00;;;;5028914;28;20203;-70
2022/07/29 10:21:13;;;;;;;0.00;0.00;;;29.00;91.00;28.70;96374.00;;;;5016373;28;20211;-70
2022/07/29 10:24:02;;;;;;;0.00;0.00;;;29.20;90.50;28.70;96379.00;;;;5023111;28;20249;-70
2022/07/29 10:26:31;;;;;;;0.00;0.00;;;29.20;90.50;28.80;96374.00;;;;5031622;28;20642;-71
2022/07/29 10:28:59;;;;;;;0.00;0.00;;;29.30;90.40;28.80;96361.00;;;;5025608;28;20199;-71
2022/07/29 10:31:40;;;;;;;0.00;0.00;;;29.30;90.40;29.00;96341.00;;;;5030626;28;20210;-71
2022/07/29 10:34:22;;;;;;;0.00;0.00;;;29.60;90.40;29.10;96361.00;;;;5021986;28;20222;-71
2022/07/29 10:37:01;;;;;;;0.00;0.00;;;29.70;90.20;29.20;96365.00;;;;5017460;28;20210;-71
2022/07/29 10:39:50;;;;;;;0.00;0.00;;;29.70;89.40;28.90;96374.00;;;;5034835;28;20709;-73
2022/07/29 10:42:23;;;;;;;0.00;0.00;;;29.50;90.00;28.60;96348.00;;;;5036682;28;20218;-73
2022/07/29 10:45:03;;;;;;;0.00;0.00;;;29.20;90.30;28.30;96319.00;;;;5040174;28;20195;-73
2022/07/29 10:47:33;;;;;;;0.00;0.00;;;28.90;90.50;28.00;96308.00;;;;5043826;28;20195;-73
2022/07/29 10:50:06;;;;;;;0.00;0.00;;;28.60;90.60;28.00;96341.00;;;;5040783;28;20769;-73
2022/07/29 10:52:54;;;;;;;0.00;0.00;;;28.60;90.80;28.10;96338.00;;;;5041788;28;20584;-73
2022/07/29 10:55:34;;;;;;;0.00;0.00;;;28.70;90.50;28.00;96331.00;;;;5036501;28;20234;-72
2022/07/29 10:58:14;;;;;;;0.00;0.00;;;28.60;90.50;28.10;96346.00;;;;5030785;28;20203;-73
2022/07/29 11:00:46;;;;;;;0.00;0.00;;;28.70;90.40;28.00;96339.00;;;;5041864;28;20266;-73
2022/07/29 11:03:47;;;;;;;0.00;0.00;;;28.60;90.30;28.20;96425.00;;;;5024256;28;20230;-74
2022/07/29 11:06:17;;;;;;;0.00;0.00;;;28.70;90.60;28.20;96387.00;;;;5035752;28;20198;-73
2022/07/29 11:09:18;;;;;;;0.00;0.00;;;28.70;90.60;28.20;96365.00;;;;5036145;28;20290;-73
2022/07/29 11:11:53;;;;;;;0.00;0.00;;;28.70;90.30;28.20;96374.00;;;;5030981;28;20191;-74
2022/07/29 11:15:01;;;;;;;0.00;0.00;;;28.80;90.30;28.50;96380.00;;;;5030458;28;20207;-72
2022/07/29 11:17:30;;;;;;;0.00;0.00;;;29.00;90.00;28.70;96409.00;;;;5015084;28;20655;-73